Time;durP1;ratioP1;P1;durP2;ratioP2;P2;SDS_P1;SDS_P2;PMS_P1;PMS_P2;Temp;Humidity;BMP_temperature;BMP_pressure;BME280_temperature;BME280_humidity;BME280_pressure;Samples;Min_cycle;Max_cycle;Signal;HPM_P1;HPM_P2
2023/10/03 00:02:20;;;;;;;12.80;5.15;;;;;;;;;;5048138;28;20044;-82
2023/10/03 00:04:45;;;;;;;14.55;5.50;;;;;;;;;;5041778;28;20033;-83
2023/10/03 00:07:11;;;;;;;16.55;5.28;;;;;;;;;;5046106;28;20086;-83
2023/10/03 00:09:36;;;;;;;11.98;4.88;;;;;;;;;;5050211;28;20029;-83
2023/10/03 00:12:02;;;;;;;12.48;4.90;;;;;;;;;;5042908;28;20067;-83
2023/10/03 00:14:27;;;;;;;14.88;5.15;;;;;;;;;;5037057;28;20091;-83
2023/10/03 00:16:54;;;;;;;14.30;4.90;;;;;;;;;;5047444;28;20033;-82
2023/10/03 00:19:20;;;;;;;12.90;4.78;;;;;;;;;;5046393;28;20036;-82
2023/10/03 00:21:45;;;;;;;12.82;4.85;;;;;;;;;;5039174;28;20032;-83
2023/10/03 00:24:11;;;;;;;14.02;4.70;;;;;;;;;;5042543;28;20064;-82
2023/10/03 00:26:36;;;;;;;10.88;4.85;;;;;;;;;;5048761;28;20040;-83
2023/10/03 00:29:03;;;;;;;11.98;5.00;;;;;;;;;;5041813;28;20033;-83
2023/10/03 00:31:29;;;;;;;14.18;5.20;;;;;;;;;;5036574;28;20037;-83
2023/10/03 00:33:56;;;;;;;12.73;4.88;;;;;;;;;;5050112;28;20040;-82
2023/10/03 00:36:25;;;;;;;14.43;5.28;;;;;;;;;;5044905;28;20037;-82
2023/10/03 00:38:51;;;;;;;11.15;4.95;;;;;;;;;;5038946;28;20484;-82
2023/10/03 00:41:19;;;;;;;10.70;4.90;;;;;;;;;;5042816;28;20144;-81
2023/10/03 00:44:04;;;;;;;14.38;5.00;;;;;;;;;;5025568;28;20664;-82
2023/10/03 00:46:31;;;;;;;12.80;4.63;;;;;;;;;;5038251;28;20033;-82
2023/10/03 00:48:57;;;;;;;12.38;4.88;;;;;;;;;;5041625;28;20048;-82
2023/10/03 00:51:25;;;;;;;10.98;4.90;;;;;;;;;;5046507;28;20063;-83
2023/10/03 00:53:55;;;;;;;11.65;4.60;;;;;;;;;;5042385;28;20036;-83
2023/10/03 00:56:21;;;;;;;12.75;4.43;;;;;;;;;;5034669;28;20025;-82
2023/10/03 00:58:47;;;;;;;13.13;4.85;;;;;;;;;;5048968;28;20439;-83
2023/10/03 01:01:12;;;;;;;12.63;5.20;;;;;;;;;;5043791;28;20029;-82
2023/10/03 01:03:38;;;;;;;12.15;4.80;;;;;;;;;;5039137;28;20033;-83
2023/10/03 01:06:07;;;;;;;14.38;4.72;;;;;;;;;;5042564;28;20033;-82
2023/10/03 01:08:36;;;;;;;14.55;4.75;;;;;;;;;;5047572;28;20434;-83
2023/10/03 01:11:04;;;;;;;12.45;4.20;;;;;;;;;;5038898;28;20033;-82
2023/10/03 01:13:30;;;;;;;12.02;4.60;;;;;;;;;;5038448;28;20033;-83
2023/10/03 01:15:56;;;;;;;10.80;4.47;;;;;;;;;;5048003;28;20037;-83
2023/10/03 01:18:22;;;;;;;12.88;4.80;;;;;;;;;;5042955;28;20067;-83
2023/10/03 01:21:00;;;;;;;13.13;4.40;;;;;;;;;;5035918;28;20636;-82
2023/10/03 01:23:34;;;;;;;15.02;4.60;;;;;;;;;;5047742;28;20568;-83
2023/10/03 01:25:59;;;;;;;12.52;4.90;;;;;;;;;;5042998;28;20033;-82
2023/10/03 01:28:26;;;;;;;13.45;4.95;;;;;;;;;;5036391;28;20041;-82
2023/10/03 01:30:52;;;;;;;12.13;4.60;;;;;;;;;;5039835;28;20048;-81
2023/10/03 01:33:17;;;;;;;11.82;4.40;;;;;;;;;;5049847;28;20033;-83
2023/10/03 01:35:43;;;;;;;11.70;4.40;;;;;;;;;;5046034;28;20037;-83
2023/10/03 01:38:08;;;;;;;11.25;4.75;;;;;;;;;;5038115;28;20037;-83
2023/10/03 01:40:35;;;;;;;11.15;4.60;;;;;;;;;;5051867;28;20469;-83
2023/10/03 01:43:00;;;;;;;11.90;4.72;;;;;;;;;;5046754;28;20041;-83
2023/10/03 01:45:32;;;;;;;10.38;4.50;;;;;;;;;;5042963;28;20025;-82
2023/10/03 01:48:04;;;;;;;11.32;4.40;;;;;;;;;;5044984;28;20033;-82
2023/10/03 01:50:34;;;;;;;12.02;4.22;;;;;;;;;;5049990;28;20059;-82
2023/10/03 01:52:59;;;;;;;12.23;4.65;;;;;;;;;;5043397;28;20029;-83
2023/10/03 01:55:25;;;;;;;11.10;4.40;;;;;;;;;;5042498;28;20056;-83
2023/10/03 01:57:52;;;;;;;8.95;4.10;;;;;;;;;;5051075;28;20100;-83
2023/10/03 02:00:21;;;;;;;10.57;4.47;;;;;;;;;;5045551;28;20025;-83
2023/10/03 02:02:47;;;;;;;10.57;4.38;;;;;;;;;;5039665;28;20032;-83
2023/10/03 02:05:14;;;;;;;10.85;4.15;;;;;;;;;;5051139;28;20029;-82
2023/10/03 02:07:43;;;;;;;11.40;4.72;;;;;;;;;;5047935;28;20049;-83
2023/10/03 02:10:12;;;;;;;10.73;4.45;;;;;;;;;;5041425;28;20491;-82
2023/10/03 02:12:51;;;;;;;9.50;4.13;;;;;;;;;;5042410;28;20037;-83
2023/10/03 02:15:21;;;;;;;12.63;4.32;;;;;;;;;;5044680;28;20033;-82
2023/10/03 02:17:49;;;;;;;13.25;4.40;;;;;;;;;;5042321;28;20109;-83
2023/10/03 02:20:20;;;;;;;11.23;4.60;;;;;;;;;;5039764;28;20055;-82
2023/10/03 02:22:53;;;;;;;10.85;4.72;;;;;;;;;;5049637;28;20059;-83
2023/10/03 02:25:29;;;;;;;12.15;4.70;;;;;;;;;;5041232;28;20029;-83
2023/10/03 02:27:56;;;;;;;11.27;4.53;;;;;;;;;;5019013;28;20128;-84
2023/10/03 02:30:25;;;;;;;11.98;4.60;;;;;;;;;;5047555;28;20454;-83
2023/10/03 02:32:57;;;;;;;11.35;4.47;;;;;;;;;;5046322;28;20065;-83
2023/10/03 02:35:26;;;;;;;11.32;4.47;;;;;;;;;;5051856;28;20030;-83
2023/10/03 02:37:55;;;;;;;11.43;4.90;;;;;;;;;;5023795;28;20033;-81
2023/10/03 02:40:26;;;;;;;14.88;5.15;;;;;;;;;;5046891;28;20029;-81
2023/10/03 02:42:54;;;;;;;11.35;4.65;;;;;;;;;;5040875;28;20595;-82
2023/10/03 02:45:25;;;;;;;12.98;4.80;;;;;;;;;;5040021;28;20033;-82
2023/10/03 02:47:55;;;;;;;10.73;4.28;;;;;;;;;;5043857;28;20036;-82
2023/10/03 02:50:26;;;;;;;12.27;4.22;;;;;;;;;;5045573;28;20048;-82
2023/10/03 02:52:55;;;;;;;12.02;4.40;;;;;;;;;;5019795;28;20029;-82
2023/10/03 02:55:22;;;;;;;15.02;4.30;;;;;;;;;;5048758;28;20051;-82
2023/10/03 02:57:48;;;;;;;10.75;4.53;;;;;;;;;;5029891;28;20104;-83
2023/10/03 03:00:15;;;;;;;15.77;4.78;;;;;;;;;;5041062;28;20110;-83
2023/10/03 03:02:42;;;;;;;11.25;4.45;;;;;;;;;;5042197;28;20560;-83
2023/10/03 03:05:15;;;;;;;11.45;4.50;;;;;;;;;;5049193;28;20035;-83
2023/10/03 03:07:48;;;;;;;13.75;4.18;;;;;;;;;;5038220;28;20037;-83
2023/10/03 03:10:17;;;;;;;11.88;4.70;;;;;;;;;;5021318;28;20042;-83
2023/10/03 03:12:44;;;;;;;11.20;3.90;;;;;;;;;;5050133;28;20070;-82
2023/10/03 03:15:23;;;;;;;11.82;4.38;;;;;;;;;;5045984;28;20036;-83
2023/10/03 03:17:52;;;;;;;10.70;4.13;;;;;;;;;;5038811;28;20128;-83
2023/10/03 03:20:19;;;;;;;13.25;4.15;;;;;;;;;;5047281;28;20033;-83
2023/10/03 03:22:48;;;;;;;12.18;4.70;;;;;;;;;;5046866;28;20056;-83
2023/10/03 03:26:12;;;;;;;10.60;4.20;;;;;;;;;;5041780;28;20078;-84
2023/10/03 03:28:13;;;;;;;10.85;4.30;;;;;;;;;;5039351;28;20107;-83
2023/10/03 03:30:46;;;;;;;11.65;4.50;;;;;;;;;;5042046;28;20078;-83
2023/10/03 03:33:19;;;;;;;10.77;4.50;;;;;;;;;;5042179;28;20080;-82
2023/10/03 03:35:46;;;;;;;10.95;3.95;;;;;;;;;;5038824;28;20041;-83
2023/10/03 03:38:18;;;;;;;15.38;4.65;;;;;;;;;;5050892;28;20343;-82
2023/10/03 03:40:45;;;;;;;14.55;4.85;;;;;;;;;;5044051;28;20036;-83
2023/10/03 03:43:14;;;;;;;12.02;4.15;;;;;;;;;;5049566;28;20021;-82
2023/10/03 03:45:40;;;;;;;12.80;4.25;;;;;;;;;;5049068;28;20047;-82
2023/10/03 03:48:06;;;;;;;13.10;4.22;;;;;;;;;;5045284;28;20030;-81
2023/10/03 03:50:31;;;;;;;11.23;4.53;;;;;;;;;;5040120;28;20048;-80
2023/10/03 03:53:02;;;;;;;11.43;4.40;;;;;;;;;;5044382;28;20457;-82
2023/10/03 03:55:29;;;;;;;10.90;3.92;;;;;;;;;;5049194;28;20061;-82
2023/10/03 03:58:04;;;;;;;13.75;4.30;;;;;;;;;;5041594;28;20048;-83
2023/10/03 04:00:31;;;;;;;10.60;4.50;;;;;;;;;;5036121;28;20029;-83
2023/10/03 04:03:00;;;;;;;9.82;4.05;;;;;;;;;;5049569;28;20055;-83
2023/10/03 04:05:27;;;;;;;10.95;4.05;;;;;;;;;;5044644;28;20410;-82
2023/10/03 04:07:54;;;;;;;12.98;4.32;;;;;;;;;;5038928;28;20045;-83
2023/10/03 04:10:21;;;;;;;10.88;4.30;;;;;;;;;;5047587;28;20029;-82
2023/10/03 04:12:49;;;;;;;9.45;3.85;;;;;;;;;;5046256;28;20048;-82
2023/10/03 04:15:15;;;;;;;13.43;4.25;;;;;;;;;;5041273;28;20025;-83
2023/10/03 04:17:42;;;;;;;10.45;4.47;;;;;;;;;;5039518;28;20036;-82
2023/10/03 04:22:41;;;;;;;10.68;4.05;;;;;;;;;;5040411;28;20035;-83
2023/10/03 04:25:13;;;;;;;11.65;3.80;;;;;;;;;;5037484;28;20013;-84
2023/10/03 04:27:39;;;;;;;10.50;4.40;;;;;;;;;;5050287;28;20060;-83
2023/10/03 04:30:07;;;;;;;10.10;4.03;;;;;;;;;;5045656;28;20037;-83
2023/10/03 04:32:33;;;;;;;10.45;3.88;;;;;;;;;;5038934;28;20029;-82
2023/10/03 04:34:58;;;;;;;14.45;4.75;;;;;;;;;;5044348;28;20459;-82
2023/10/03 04:37:24;;;;;;;11.15;4.18;;;;;;;;;;5048294;28;20037;-80
2023/10/03 04:39:49;;;;;;;12.60;4.45;;;;;;;;;;5042215;28;20035;-81
2023/10/03 04:42:15;;;;;;;11.23;4.22;;;;;;;;;;5035001;28;20091;-82
2023/10/03 04:44:41;;;;;;;12.20;4.18;;;;;;;;;;5050159;28;20025;-82
2023/10/03 04:47:09;;;;;;;12.50;4.63;;;;;;;;;;5055169;28;20510;-82
2023/10/03 04:49:35;;;;;;;11.55;4.40;;;;;;;;;;5039358;28;20171;-81
2023/10/03 04:52:00;;;;;;;10.25;4.30;;;;;;;;;;5044616;28;20072;-82
2023/10/03 04:54:26;;;;;;;14.35;4.43;;;;;;;;;;5047391;28;20025;-82
2023/10/03 04:56:51;;;;;;;11.90;4.53;;;;;;;;;;5041929;28;20402;-82
2023/10/03 04:59:19;;;;;;;14.88;4.20;;;;;;;;;;5036540;28;20068;-83
2023/10/03 05:01:44;;;;;;;12.98;4.30;;;;;;;;;;5047597;28;20403;-84
2023/10/03 05:04:12;;;;;;;17.92;4.57;;;;;;;;;;5043784;28;20490;-84
2023/10/03 05:06:37;;;;;;;13.32;4.60;;;;;;;;;;5038332;28;20083;-84
2023/10/03 05:09:04;;;;;;;12.57;4.60;;;;;;;;;;5051096;28;20045;-83
2023/10/03 05:11:30;;;;;;;11.13;4.32;;;;;;;;;;5049407;28;20040;-82
2023/10/03 05:13:55;;;;;;;9.63;4.10;;;;;;;;;;5044137;28;20086;-82
2023/10/03 05:16:21;;;;;;;13.35;4.35;;;;;;;;;;5046166;28;20076;-81
2023/10/03 05:18:46;;;;;;;11.20;4.05;;;;;;;;;;5051494;28;20037;-83
2023/10/03 05:21:13;;;;;;;11.85;4.63;;;;;;;;;;5044968;28;20128;-83
2023/10/03 05:23:41;;;;;;;12.73;4.57;;;;;;;;;;5038365;28;20033;-83
2023/10/03 05:26:07;;;;;;;10.75;4.40;;;;;;;;;;5050684;28;20041;-84
2023/10/03 05:28:37;;;;;;;12.75;4.35;;;;;;;;;;5046872;28;20483;-83
2023/10/03 05:31:03;;;;;;;11.43;4.50;;;;;;;;;;5041381;28;20044;-83
2023/10/03 05:33:28;;;;;;;11.60;4.50;;;;;;;;;;5046025;28;20045;-83
2023/10/03 05:35:54;;;;;;;10.93;4.32;;;;;;;;;;5050318;28;20124;-83
2023/10/03 05:38:20;;;;;;;9.57;4.15;;;;;;;;;;5043517;28;20030;-82
2023/10/03 05:40:47;;;;;;;12.05;3.90;;;;;;;;;;5038175;28;20502;-82
2023/10/03 05:43:12;;;;;;;11.45;3.90;;;;;;;;;;5051739;28;20040;-82
2023/10/03 05:45:39;;;;;;;9.85;3.80;;;;;;;;;;5046652;28;20029;-82
2023/10/03 05:48:05;;;;;;;9.38;3.55;;;;;;;;;;5040964;28;20491;-82
2023/10/03 05:50:31;;;;;;;9.98;4.15;;;;;;;;;;5047147;28;20029;-82
2023/10/03 05:52:57;;;;;;;12.88;4.40;;;;;;;;;;5048814;28;20089;-82
2023/10/03 05:55:22;;;;;;;12.27;4.40;;;;;;;;;;5039890;28;20037;-82
2023/10/03 05:57:47;;;;;;;10.65;4.30;;;;;;;;;;5040840;28;20040;-83
2023/10/03 06:00:18;;;;;;;11.25;4.68;;;;;;;;;;5050623;28;20493;-83
2023/10/03 06:02:47;;;;;;;14.80;4.38;;;;;;;;;;5045207;28;20041;-82
2023/10/03 06:05:14;;;;;;;9.48;4.38;;;;;;;;;;5037631;28;20025;-83
2023/10/03 06:07:41;;;;;;;10.70;4.63;;;;;;;;;;5048162;28;20043;-82
2023/10/03 06:10:10;;;;;;;12.13;4.60;;;;;;;;;;5047933;28;20065;-82
2023/10/03 06:12:36;;;;;;;11.82;4.50;;;;;;;;;;5040466;28;20305;-82
2023/10/03 06:15:04;;;;;;;13.30;4.60;;;;;;;;;;5043463;28;20029;-82
2023/10/03 06:17:31;;;;;;;11.27;4.60;;;;;;;;;;5041880;28;20454;-82
2023/10/03 06:19:57;;;;;;;10.43;4.13;;;;;;;;;;5044447;28;20041;-82
2023/10/03 06:22:23;;;;;;;10.32;4.28;;;;;;;;;;5036393;28;20122;-83
2023/10/03 06:24:49;;;;;;;12.65;4.57;;;;;;;;;;5049587;28;20117;-83
2023/10/03 06:27:14;;;;;;;10.60;4.70;;;;;;;;;;5046356;28;20403;-83
2023/10/03 06:29:40;;;;;;;13.02;4.57;;;;;;;;;;5040520;28;20116;-83
2023/10/03 06:32:06;;;;;;;13.00;4.47;;;;;;;;;;5042595;28;20037;-82
2023/10/03 06:34:33;;;;;;;12.27;4.53;;;;;;;;;;5049744;28;20041;-82
2023/10/03 06:36:59;;;;;;;10.35;4.68;;;;;;;;;;5042384;28;20052;-82
2023/10/03 06:39:24;;;;;;;11.93;4.65;;;;;;;;;;5038245;28;20034;-82
2023/10/03 06:41:55;;;;;;;11.32;4.20;;;;;;;;;;5051318;28;20056;-83
2023/10/03 06:44:22;;;;;;;11.82;4.72;;;;;;;;;;5043626;28;20104;-80
2023/10/03 06:46:47;;;;;;;12.60;4.47;;;;;;;;;;5039760;28;20037;-83
2023/10/03 06:49:14;;;;;;;13.90;4.43;;;;;;;;;;5045964;28;20041;-83
2023/10/03 06:51:39;;;;;;;13.55;4.90;;;;;;;;;;5047251;28;20555;-83
2023/10/03 06:54:05;;;;;;;14.05;5.45;;;;;;;;;;5041668;28;20049;-83
2023/10/03 06:56:32;;;;;;;13.63;4.72;;;;;;;;;;5040145;28;20029;-83
2023/10/03 06:59:01;;;;;;;13.10;5.07;;;;;;;;;;5049357;28;20115;-83
2023/10/03 07:01:27;;;;;;;11.63;4.93;;;;;;;;;;5043590;28;20103;-83
2023/10/03 07:03:56;;;;;;;14.00;5.28;;;;;;;;;;5037639;28;20047;-83
2023/10/03 07:06:22;;;;;;;12.30;4.80;;;;;;;;;;5051375;28;20128;-83
2023/10/03 07:08:48;;;;;;;14.25;5.07;;;;;;;;;;5045197;28;20048;-82
2023/10/03 07:11:16;;;;;;;15.27;4.97;;;;;;;;;;5039758;28;20029;-82
2023/10/03 07:13:42;;;;;;;13.75;5.82;;;;;;;;;;5041814;28;20384;-82
2023/10/03 07:16:09;;;;;;;12.60;5.30;;;;;;;;;;5048232;28;20033;-82
2023/10/03 07:18:37;;;;;;;12.82;4.78;;;;;;;;;;5042612;28;20554;-83
2023/10/03 07:21:03;;;;;;;14.43;5.53;;;;;;;;;;5035305;28;20033;-81
2023/10/03 07:23:29;;;;;;;13.45;5.28;;;;;;;;;;5050499;28;20625;-83
2023/10/03 07:25:55;;;;;;;15.75;4.75;;;;;;;;;;5043988;28;20112;-82
2023/10/03 07:28:20;;;;;;;12.43;4.75;;;;;;;;;;5037332;28;20064;-82
2023/10/03 07:30:46;;;;;;;18.02;5.10;;;;;;;;;;5045735;28;20052;-84
2023/10/03 07:33:11;;;;;;;11.75;4.95;;;;;;;;;;5048031;28;20399;-82
2023/10/03 07:35:41;;;;;;;14.38;5.35;;;;;;;;;;5040388;28;20037;-83
2023/10/03 07:38:10;;;;;;;11.98;4.70;;;;;;;;;;5038262;28;20495;-84
2023/10/03 07:40:35;;;;;;;13.82;5.13;;;;;;;;;;5048445;28;20686;-81
2023/10/03 07:43:02;;;;;;;12.48;5.03;;;;;;;;;;5043160;28;20037;-83
2023/10/03 07:45:27;;;;;;;13.85;5.22;;;;;;;;;;5037455;28;20044;-83
2023/10/03 07:47:53;;;;;;;11.02;5.15;;;;;;;;;;5047587;28;20041;-82
2023/10/03 07:50:18;;;;;;;11.85;4.70;;;;;;;;;;5046130;28;20037;-83
2023/10/03 07:52:48;;;;;;;10.77;4.82;;;;;;;;;;5038756;28;20033;-82
2023/10/03 07:55:14;;;;;;;12.18;4.93;;;;;;;;;;5039860;28;20068;-83
2023/10/03 07:57:41;;;;;;;12.77;4.97;;;;;;;;;;5048615;28;20095;-83
2023/10/03 08:00:09;;;;;;;11.82;4.97;;;;;;;;;;5040779;28;20120;-83
2023/10/03 08:02:35;;;;;;;14.23;5.03;;;;;;;;;;5035388;28;20155;-84
2023/10/03 08:05:00;;;;;;;11.80;4.97;;;;;;;;;;5049095;28;20029;-83
2023/10/03 08:07:27;;;;;;;12.38;5.57;;;;;;;;;;5044303;28;20090;-83
2023/10/03 08:09:53;;;;;;;14.70;5.20;;;;;;;;;;5039151;28;20087;-84
2023/10/03 08:12:24;;;;;;;12.80;5.60;;;;;;;;;;5043411;28;20457;-84
2023/10/03 08:14:52;;;;;;;14.85;5.25;;;;;;;;;;5041096;28;20398;-83
2023/10/03 08:17:25;;;;;;;13.60;5.72;;;;;;;;;;5042321;28;20033;-83
2023/10/03 08:19:51;;;;;;;;;;;;;;;;;;5041284;28;20033;-81
2023/10/03 08:22:17;;;;;;;13.82;5.20;;;;;;;;;;5048096;28;20363;-84
2023/10/03 08:24:43;;;;;;;10.88;4.90;;;;;;;;;;5043045;28;20037;-83
2023/10/03 08:27:18;;;;;;;14.68;5.75;;;;;;;;;;5038476;28;20044;-83
2023/10/03 08:29:51;;;;;;;12.40;5.47;;;;;;;;;;5046562;28;20458;-84
2023/10/03 08:32:17;;;;;;;16.08;6.03;;;;;;;;;;5044243;28;20041;-83
2023/10/03 08:34:46;;;;;;;16.20;6.10;;;;;;;;;;5035901;28;20056;-83
2023/10/03 08:37:21;;;;;;;14.65;6.00;;;;;;;;;;5041983;28;20056;-84
2023/10/03 08:39:51;;;;;;;12.45;5.63;;;;;;;;;;5045961;28;20041;-83
2023/10/03 08:42:20;;;;;;;12.63;5.70;;;;;;;;;;5036907;28;20422;-83
2023/10/03 08:44:52;;;;;;;15.35;5.90;;;;;;;;;;5032403;28;20071;-84
2023/10/03 08:47:29;;;;;;;13.80;5.53;;;;;;;;;;5048764;28;20041;-84
2023/10/03 08:50:10;;;;;;;12.20;5.72;;;;;;;;;;5053060;28;20124;-83
2023/10/03 08:52:48;;;;;;;13.55;6.25;;;;;;;;;;5033991;28;20033;-84
2023/10/03 08:55:15;;;;;;;14.07;5.85;;;;;;;;;;5029238;28;20045;-84
2023/10/03 08:57:41;;;;;;;14.05;5.85;;;;;;;;;;5024112;28;20080;-84
2023/10/03 09:00:10;;;;;;;13.02;6.03;;;;;;;;;;5018386;28;20061;-84
2023/10/03 09:02:45;;;;;;;13.05;5.63;;;;;;;;;;5042213;28;20037;-84
2023/10/03 09:05:24;;;;;;;14.60;6.38;;;;;;;;;;5043451;28;20021;-83
2023/10/03 09:07:51;;;;;;;15.50;6.07;;;;;;;;;;5038020;28;20072;-83
2023/10/03 09:10:24;;;;;;;12.02;6.00;;;;;;;;;;5037221;28;20041;-82
2023/10/03 09:13:03;;;;;;;17.67;6.75;;;;;;;;;;5044864;28;20033;-84
2023/10/03 09:15:37;;;;;;;16.85;6.55;;;;;;;;;;5037987;28;20700;-82
2023/10/03 09:18:09;;;;;;;17.13;6.15;;;;;;;;;;5018071;28;20045;-83
2023/10/03 09:20:35;;;;;;;14.50;6.65;;;;;;;;;;5046353;28;20522;-82
2023/10/03 09:23:08;;;;;;;13.25;6.38;;;;;;;;;;5042243;28;20044;-84
2023/10/03 09:25:41;;;;;;;14.07;6.53;;;;;;;;;;5035362;28;20068;-83
2023/10/03 09:28:08;;;;;;;16.20;6.63;;;;;;;;;;5048259;28;20367;-83
2023/10/03 09:30:42;;;;;;;18.48;6.68;;;;;;;;;;5043979;28;20033;-83
2023/10/03 09:33:09;;;;;;;15.05;6.55;;;;;;;;;;5038301;28;20037;-84
2023/10/03 09:35:39;;;;;;;16.33;6.63;;;;;;;;;;5039770;28;20076;-84
2023/10/03 09:38:08;;;;;;;15.73;7.43;;;;;;;;;;5046194;28;20082;-84
2023/10/03 09:40:51;;;;;;;14.68;6.32;;;;;;;;;;5038562;28;20034;-84
2023/10/03 09:43:19;;;;;;;16.70;6.57;;;;;;;;;;5036548;28;20612;-84
2023/10/03 09:45:47;;;;;;;14.10;6.68;;;;;;;;;;5030024;28;20355;-84
2023/10/03 09:48:14;;;;;;;16.42;6.60;;;;;;;;;;5042911;28;20045;-83
2023/10/03 09:50:43;;;;;;;16.10;6.85;;;;;;;;;;5035939;28;20450;-86
2023/10/03 09:53:15;;;;;;;16.27;6.75;;;;;;;;;;5045695;28;20029;-83
2023/10/03 09:55:46;;;;;;;14.95;6.72;;;;;;;;;;5046830;28;20035;-84
2023/10/03 09:58:21;;;;;;;18.77;7.20;;;;;;;;;;5039313;28;20127;-84
2023/10/03 10:00:51;;;;;;;15.30;6.80;;;;;;;;;;5040288;28;20041;-84
2023/10/03 10:03:28;;;;;;;14.65;6.78;;;;;;;;;;5029607;28;20037;-83
2023/10/03 10:06:15;;;;;;;13.77;6.95;;;;;;;;;;5040578;28;20065;-82
2023/10/03 10:09:02;;;;;;;14.63;6.47;;;;;;;;;;5022985;28;20669;-82
2023/10/03 10:11:30;;;;;;;13.98;6.57;;;;;;;;;;5044209;28;20411;-82
2023/10/03 10:14:10;;;;;;;14.23;6.70;;;;;;;;;;5043694;28;20041;-82
2023/10/03 10:17:04;;;;;;;14.82;7.00;;;;;;;;;;5035315;28;20041;-83
2023/10/03 10:20:07;;;;;;;16.67;6.88;;;;;;;;;;5050775;28;20044;-83
2023/10/03 10:23:16;;;;;;;15.60;7.03;;;;;;;;;;5035509;28;20049;-83
2023/10/03 10:25:49;;;;;;;15.10;6.68;;;;;;;;;;5045874;28;20037;-82
2023/10/03 10:28:20;;;;;;;;;;;;;;;;;;5051344;28;20128;-82
2023/10/03 10:31:22;;;;;;;15.60;6.80;;;;;;;;;;5045581;28;19913;-83
2023/10/03 10:33:49;;;;;;;13.60;6.57;;;;;;;;;;5045942;28;20088;-83
2023/10/03 10:36:18;;;;;;;15.57;6.53;;;;;;;;;;5052535;28;20029;-82
2023/10/03 10:38:44;;;;;;;14.13;6.88;;;;;;;;;;5045178;28;20523;-82
2023/10/03 10:41:18;;;;;;;14.55;6.90;;;;;;;;;;5040393;28;20065;-82
2023/10/03 10:44:16;;;;;;;15.52;7.40;;;;;;;;;;5046366;28;20033;-82
2023/10/03 10:46:46;;;;;;;16.25;7.22;;;;;;;;;;5045398;28;20036;-82
2023/10/03 10:49:40;;;;;;;16.85;7.30;;;;;;;;;;5038115;28;20086;-82
2023/10/03 10:52:10;;;;;;;12.45;6.57;;;;;;;;;;5047556;28;20103;-83
2023/10/03 10:54:41;;;;;;;13.90;6.63;;;;;;;;;;5041721;28;20112;-83
2023/10/03 10:57:10;;;;;;;12.88;6.57;;;;;;;;;;5045523;28;20461;-81
2023/10/03 10:59:39;;;;;;;15.23;7.18;;;;;;;;;;5045456;28;20037;-81
2023/10/03 11:02:16;;;;;;;14.45;6.65;;;;;;;;;;5046993;28;20062;-83
2023/10/03 11:04:43;;;;;;;14.52;7.28;;;;;;;;;;5040371;28;20037;-83
2023/10/03 11:07:09;;;;;;;14.20;6.45;;;;;;;;;;5041415;28;20039;-82
2023/10/03 11:09:38;;;;;;;14.05;6.78;;;;;;;;;;5050388;28;20030;-83
2023/10/03 11:12:06;;;;;;;14.75;6.50;;;;;;;;;;5042331;28;20033;-83
2023/10/03 11:14:34;;;;;;;13.98;6.53;;;;;;;;;;5038326;28;20045;-85
2023/10/03 11:17:01;;;;;;;13.13;6.70;;;;;;;;;;5059740;28;20036;-84
2023/10/03 11:19:31;;;;;;;16.17;6.97;;;;;;;;;;5048830;28;20060;-84
2023/10/03 11:21:57;;;;;;;15.38;6.72;;;;;;;;;;5046446;28;20041;-84
2023/10/03 11:24:24;;;;;;;14.55;5.97;;;;;;;;;;5050363;28;20040;-84
2023/10/03 11:26:55;;;;;;;11.95;6.15;;;;;;;;;;5056069;28;20044;-83
2023/10/03 11:29:54;;;;;;;14.23;6.90;;;;;;;;;;5049562;28;20378;-84
2023/10/03 11:32:30;;;;;;;13.45;6.05;;;;;;;;;;5030616;28;20069;-84
2023/10/03 11:34:57;;;;;;;12.32;6.32;;;;;;;;;;5058742;28;20037;-84
2023/10/03 11:37:39;;;;;;;13.35;6.28;;;;;;;;;;5052999;28;20033;-84
2023/10/03 11:40:07;;;;;;;12.63;5.88;;;;;;;;;;5047973;28;20049;-84
2023/10/03 11:42:32;;;;;;;10.43;5.60;;;;;;;;;;5049321;28;20067;-84
2023/10/03 11:45:01;;;;;;;11.70;5.88;;;;;;;;;;5055443;28;20029;-85
2023/10/03 11:47:28;;;;;;;10.43;5.47;;;;;;;;;;5046389;28;20045;-84
2023/10/03 11:49:56;;;;;;;11.57;5.78;;;;;;;;;;5056699;28;20029;-85
2023/10/03 11:52:23;;;;;;;12.25;5.60;;;;;;;;;;5051213;28;20029;-85
2023/10/03 11:54:49;;;;;;;11.73;5.65;;;;;;;;;;5053068;28;20033;-85
2023/10/03 11:57:15;;;;;;;11.48;5.60;;;;;;;;;;5053891;28;20047;-84
2023/10/03 11:59:40;;;;;;;11.38;5.38;;;;;;;;;;5061919;28;20127;-82
2023/10/03 12:02:06;;;;;;;14.10;5.90;;;;;;;;;;5053793;28;20048;-84
2023/10/03 12:04:38;;;;;;;12.27;5.70;;;;;;;;;;5052107;28;20040;-84
2023/10/03 12:07:04;;;;;;;15.25;5.55;;;;;;;;;;5057478;28;20037;-84
2023/10/03 12:09:30;;;;;;;12.63;5.50;;;;;;;;;;5050929;28;20060;-85
2023/10/03 12:11:57;;;;;;;11.77;5.55;;;;;;;;;;5038720;28;20410;-86
2023/10/03 12:14:23;;;;;;;10.73;5.45;;;;;;;;;;5041738;28;20234;-86
2023/10/03 12:16:51;;;;;;;10.95;5.53;;;;;;;;;;5046074;28;20562;-83
2023/10/03 12:19:21;;;;;;;10.43;5.60;;;;;;;;;;5050720;28;20041;-88
2023/10/03 12:21:47;;;;;;;11.30;5.47;;;;;;;;;;5049676;28;20055;-85
2023/10/03 12:24:12;;;;;;;10.95;4.90;;;;;;;;;;5058278;28;20107;-84
2023/10/03 12:26:38;;;;;;;11.88;5.45;;;;;;;;;;5053532;28;20036;-84
2023/10/03 12:29:06;;;;;;;10.63;5.10;;;;;;;;;;5047773;28;20068;-84
2023/10/03 12:31:32;;;;;;;11.82;5.80;;;;;;;;;;5052182;28;20033;-84
2023/10/03 12:34:01;;;;;;;12.93;5.68;;;;;;;;;;5066558;28;20032;-84
2023/10/03 12:36:32;;;;;;;11.68;5.50;;;;;;;;;;5049478;28;20093;-84
2023/10/03 12:38:59;;;;;;;13.93;5.50;;;;;;;;;;5045455;28;20088;-84
2023/10/03 12:41:29;;;;;;;12.60;5.78;;;;;;;;;;5052997;28;20029;-83
2023/10/03 12:43:54;;;;;;;14.38;5.68;;;;;;;;;;5045921;28;20041;-83
2023/10/03 12:46:20;;;;;;;13.95;5.40;;;;;;;;;;5042688;28;20038;-83
2023/10/03 12:48:45;;;;;;;14.52;6.03;;;;;;;;;;5057723;28;20538;-83
2023/10/03 12:51:11;;;;;;;11.85;5.13;;;;;;;;;;5050143;28;20033;-83
2023/10/03 12:53:37;;;;;;;10.13;5.30;;;;;;;;;;5043988;28;20097;-83
2023/10/03 12:56:08;;;;;;;12.45;5.25;;;;;;;;;;5047953;28;20060;-84
2023/10/03 12:58:34;;;;;;;11.10;5.53;;;;;;;;;;5052982;28;20021;-84
2023/10/03 13:01:00;;;;;;;11.48;5.45;;;;;;;;;;5055103;28;20101;-84
2023/10/03 13:03:25;;;;;;;11.50;5.70;;;;;;;;;;5036694;28;20069;-83
2023/10/03 13:05:52;;;;;;;10.35;5.68;;;;;;;;;;5055457;28;20063;-83
2023/10/03 13:08:18;;;;;;;10.38;5.50;;;;;;;;;;5050440;28;20048;-83
2023/10/03 13:10:44;;;;;;;13.10;5.47;;;;;;;;;;5040294;28;20041;-83
2023/10/03 13:13:12;;;;;;;11.65;5.88;;;;;;;;;;5047684;28;20045;-84
2023/10/03 13:15:37;;;;;;;11.13;5.32;;;;;;;;;;5050605;28;20053;-83
2023/10/03 13:18:03;;;;;;;13.77;5.60;;;;;;;;;;5042303;28;20063;-85
2023/10/03 13:20:29;;;;;;;13.55;5.63;;;;;;;;;;5039434;28;20048;-84
2023/10/03 13:22:57;;;;;;;12.13;5.63;;;;;;;;;;5048948;28;20128;-85
2023/10/03 13:25:24;;;;;;;13.55;5.40;;;;;;;;;;5044110;28;20479;-85
2023/10/03 13:27:52;;;;;;;11.82;5.38;;;;;;;;;;5035001;28;20033;-85
2023/10/03 13:30:18;;;;;;;9.82;5.22;;;;;;;;;;5055536;28;20037;-84
2023/10/03 13:32:51;;;;;;;11.32;5.10;;;;;;;;;;5055284;28;20104;-85
2023/10/03 13:35:20;;;;;;;10.48;5.07;;;;;;;;;;5047689;28;20037;-85
2023/10/03 13:37:46;;;;;;;10.50;5.47;;;;;;;;;;5050384;28;20037;-85
2023/10/03 13:40:12;;;;;;;12.15;5.63;;;;;;;;;;5055684;28;20045;-84
2023/10/03 13:42:38;;;;;;;10.23;4.88;;;;;;;;;;5052251;28;20048;-83
2023/10/03 13:45:05;;;;;;;13.50;4.93;;;;;;;;;;5039581;28;20041;-84
2023/10/03 13:47:31;;;;;;;11.50;5.10;;;;;;;;;;5037496;28;20088;-85
2023/10/03 13:50:00;;;;;;;10.80;5.18;;;;;;;;;;5049277;28;20087;-86
2023/10/03 13:52:25;;;;;;;10.30;4.80;;;;;;;;;;5042015;28;20041;-85
2023/10/03 13:54:51;;;;;;;11.57;5.20;;;;;;;;;;5048940;28;20029;-85
2023/10/03 13:57:17;;;;;;;10.45;5.15;;;;;;;;;;5049373;28;20052;-86
2023/10/03 13:59:46;;;;;;;9.73;4.78;;;;;;;;;;5066759;22;20495;-83
2023/10/03 14:02:12;;;;;;;10.23;5.07;;;;;;;;;;5040939;28;20033;-87
2023/10/03 14:04:38;;;;;;;10.40;5.03;;;;;;;;;;5054254;28;20071;-87
2023/10/03 14:07:04;;;;;;;11.00;4.97;;;;;;;;;;5046671;28;20048;-87
2023/10/03 14:09:32;;;;;;;10.65;4.75;;;;;;;;;;5058382;28;20052;-88
2023/10/03 14:12:04;;;;;;;8.57;4.72;;;;;;;;;;5056757;28;20040;-88
2023/10/03 14:14:30;;;;;;;11.30;4.80;;;;;;;;;;5040353;28;20558;-83
2023/10/03 14:17:00;;;;;;;10.57;5.22;;;;;;;;;;5060018;28;20048;-84
2023/10/03 14:19:34;;;;;;;10.90;5.25;;;;;;;;;;5059900;28;20037;-87
2023/10/03 14:22:02;;;;;;;10.30;5.35;;;;;;;;;;5059446;28;20123;-84
2023/10/03 14:24:31;;;;;;;12.13;5.20;;;;;;;;;;5057949;28;20107;-86
2023/10/03 14:26:57;;;;;;;10.93;5.45;;;;;;;;;;5058580;28;20115;-86
2023/10/03 14:29:23;;;;;;;10.18;5.22;;;;;;;;;;5057772;28;20056;-87
2023/10/03 14:31:50;;;;;;;10.07;5.30;;;;;;;;;;5058752;28;20036;-87
2023/10/03 14:34:16;;;;;;;11.95;5.00;;;;;;;;;;5056961;28;20053;-87
2023/10/03 14:36:43;;;;;;;11.75;4.90;;;;;;;;;;5040898;28;20063;-83
2023/10/03 14:39:12;;;;;;;11.55;5.10;;;;;;;;;;5057595;28;20124;-86
2023/10/03 14:41:38;;;;;;;10.93;4.88;;;;;;;;;;5055214;28;20044;-83
2023/10/03 14:44:05;;;;;;;10.63;5.18;;;;;;;;;;5056872;28;20108;-84